Time;durP1;ratioP1;P1;durP2;ratioP2;P2;SDS_P1;SDS_P2;PMS_P1;PMS_P2;Temp;Humidity;BMP_temperature;BMP_pressure;BME280_temperature;BME280_humidity;BME280_pressure;Samples;Min_cycle;Max_cycle;Signal;HPM_P1;HPM_P2
2022/09/01 00:01:40;;;;;;;13.85;3.05;;;;;;;;;;5003593;28;20456;-66
2022/09/01 00:04:08;;;;;;;18.90;3.35;;;;;;;;;;5001979;28;20087;-65
2022/09/01 00:06:37;;;;;;;15.15;2.72;;;;;;;;;;4998326;28;20463;-66
2022/09/01 00:09:04;;;;;;;12.50;2.88;;;;;;;;;;5002536;28;20113;-66
2022/09/01 00:11:31;;;;;;;18.50;3.15;;;;;;;;;;5002675;28;20436;-65
2022/09/01 00:13:58;;;;;;;13.88;2.70;;;;;;;;;;5000483;28;20033;-65
2022/09/01 00:16:28;;;;;;;15.13;2.70;;;;;;;;;;5003081;28;20056;-67
2022/09/01 00:18:54;;;;;;;12.82;2.72;;;;;;;;;;5000201;28;20356;-65
2022/09/01 00:21:23;;;;;;;14.30;2.90;;;;;;;;;;5004559;28;20700;-66
2022/09/01 00:23:49;;;;;;;13.13;2.80;;;;;;;;;;4997582;28;20021;-66
2022/09/01 00:26:16;;;;;;;12.93;2.55;;;;;;;;;;5004878;28;20025;-65
2022/09/01 00:28:42;;;;;;;13.70;2.78;;;;;;;;;;4999398;28;20475;-66
2022/09/01 00:31:09;;;;;;;15.25;2.60;;;;;;;;;;5004634;28;20124;-66
2022/09/01 00:33:36;;;;;;;10.00;2.25;;;;;;;;;;5002318;28;20037;-66
2022/09/01 00:36:02;;;;;;;14.00;2.90;;;;;;;;;;5003674;28;20029;-66
2022/09/01 00:38:28;;;;;;;14.68;2.20;;;;;;;;;;5004429;28;20041;-66
2022/09/01 00:40:55;;;;;;;15.88;3.03;;;;;;;;;;5001038;28;20122;-66
2022/09/01 00:43:22;;;;;;;19.17;2.90;;;;;;;;;;5005004;28;20021;-66
2022/09/01 00:45:50;;;;;;;19.55;3.42;;;;;;;;;;5000873;28;20037;-66
2022/09/01 00:48:19;;;;;;;18.90;3.22;;;;;;;;;;5005385;28;20056;-67
2022/09/01 00:50:45;;;;;;;18.88;3.70;;;;;;;;;;5001481;28;20036;-66
2022/09/01 00:53:12;;;;;;;16.65;3.30;;;;;;;;;;5008011;28;20037;-66
2022/09/01 00:55:38;;;;;;;23.52;3.20;;;;;;;;;;5002360;28;20045;-66
2022/09/01 00:58:06;;;;;;;16.75;3.30;;;;;;;;;;5005762;28;20027;-66
2022/09/01 01:00:39;;;;;;;15.90;3.60;;;;;;;;;;5009283;28;20044;-66
2022/09/01 01:03:05;;;;;;;17.45;3.67;;;;;;;;;;5005899;28;20056;-66
2022/09/01 01:05:33;;;;;;;20.40;3.22;;;;;;;;;;5005918;28;20025;-66
2022/09/01 01:08:00;;;;;;;15.43;3.40;;;;;;;;;;5006306;28;20050;-66
2022/09/01 01:10:27;;;;;;;17.80;3.33;;;;;;;;;;5010701;28;20163;-66
2022/09/01 01:12:53;;;;;;;20.80;3.65;;;;;;;;;;5003288;28;20026;-66
2022/09/01 01:15:20;;;;;;;19.10;3.45;;;;;;;;;;5008507;28;20038;-66
2022/09/01 01:17:46;;;;;;;17.25;3.42;;;;;;;;;;5005146;28;20059;-66
2022/09/01 01:23:10;;;;;;;17.08;3.47;;;;;;;;;;5004108;28;20040;-67
2022/09/01 01:25:44;;;;;;;20.02;3.38;;;;;;;;;;4990193;28;20036;-66
2022/09/01 01:28:12;;;;;;;21.48;3.63;;;;;;;;;;5007677;28;20072;-66
2022/09/01 01:30:40;;;;;;;15.75;3.35;;;;;;;;;;5007271;28;20037;-66
2022/09/01 01:33:07;;;;;;;16.13;3.53;;;;;;;;;;5004089;28;20103;-66
2022/09/01 01:35:33;;;;;;;19.65;3.38;;;;;;;;;;5007126;28;20033;-66
2022/09/01 01:38:00;;;;;;;15.63;3.30;;;;;;;;;;5005407;28;20033;-66
2022/09/01 01:40:28;;;;;;;17.38;2.88;;;;;;;;;;5004706;28;20120;-66
2022/09/01 01:42:56;;;;;;;17.45;3.53;;;;;;;;;;5004091;28;20143;-66
2022/09/01 01:45:24;;;;;;;20.90;3.40;;;;;;;;;;5007273;28;20427;-66
2022/09/01 01:47:55;;;;;;;23.85;6.82;;;;;;;;;;5004174;28;20032;-66
2022/09/01 01:50:26;;;;;;;24.88;11.23;;;;;;;;;;5006074;28;20042;-66
2022/09/01 01:52:53;;;;;;;24.65;10.90;;;;;;;;;;5002722;28;20038;-66
2022/09/01 01:55:20;;;;;;;21.92;9.55;;;;;;;;;;5005242;28;20752;-66
2022/09/01 01:57:50;;;;;;;27.63;9.23;;;;;;;;;;5002087;28;20029;-66
2022/09/01 02:00:18;;;;;;;24.10;7.93;;;;;;;;;;5004044;28;20037;-66
2022/09/01 02:02:51;;;;;;;16.83;5.10;;;;;;;;;;5002288;28;20026;-66
2022/09/01 02:05:20;;;;;;;17.15;4.10;;;;;;;;;;5008996;28;20032;-66
2022/09/01 02:07:47;;;;;;;14.90;3.33;;;;;;;;;;5003229;28;20124;-66
2022/09/01 02:10:13;;;;;;;15.80;3.58;;;;;;;;;;5003316;28;20041;-66
2022/09/01 02:12:42;;;;;;;14.82;3.30;;;;;;;;;;5002510;28;20029;-66
2022/09/01 02:15:10;;;;;;;16.75;3.50;;;;;;;;;;5006371;28;20030;-66
2022/09/01 02:17:38;;;;;;;15.98;3.08;;;;;;;;;;5008106;28;20036;-66
2022/09/01 02:20:05;;;;;;;20.15;4.00;;;;;;;;;;5003733;28;20144;-66
2022/09/01 02:22:31;;;;;;;19.88;3.50;;;;;;;;;;5007118;28;20109;-66
2022/09/01 02:24:59;;;;;;;17.17;3.60;;;;;;;;;;5001469;28;20301;-66
2022/09/01 02:27:28;;;;;;;16.20;3.38;;;;;;;;;;5007887;28;20029;-66
2022/09/01 02:29:54;;;;;;;16.13;3.50;;;;;;;;;;5001455;28;20029;-66
2022/09/01 02:32:21;;;;;;;18.92;3.85;;;;;;;;;;5006696;28;20454;-66
2022/09/01 02:34:52;;;;;;;18.15;3.85;;;;;;;;;;5002545;28;20411;-65
2022/09/01 02:37:24;;;;;;;12.82;3.10;;;;;;;;;;5005099;28;20021;-66
2022/09/01 02:39:52;;;;;;;19.63;3.50;;;;;;;;;;5000351;28;20037;-66
2022/09/01 02:42:21;;;;;;;18.52;4.03;;;;;;;;;;4993226;28;20030;-66
2022/09/01 02:44:47;;;;;;;16.70;3.47;;;;;;;;;;4983028;28;20061;-66
2022/09/01 02:47:14;;;;;;;18.77;3.83;;;;;;;;;;5004118;28;20410;-67
2022/09/01 02:49:41;;;;;;;24.38;3.90;;;;;;;;;;5004149;28;20474;-66
2022/09/01 02:52:07;;;;;;;16.98;3.63;;;;;;;;;;5006378;28;20022;-66
2022/09/01 02:54:33;;;;;;;14.52;3.40;;;;;;;;;;5001003;28;20440;-66
2022/09/01 02:57:00;;;;;;;15.57;3.33;;;;;;;;;;5002383;28;20052;-66
2022/09/01 02:59:28;;;;;;;17.95;3.85;;;;;;;;;;5005342;28;20794;-66
2022/09/01 03:01:56;;;;;;;18.25;3.63;;;;;;;;;;5001081;28;20117;-66
2022/09/01 03:04:22;;;;;;;19.80;3.50;;;;;;;;;;5002296;28;20021;-66
2022/09/01 03:06:51;;;;;;;15.40;2.97;;;;;;;;;;5003890;28;20049;-66
2022/09/01 03:09:18;;;;;;;21.08;3.83;;;;;;;;;;5004517;28;20037;-66
2022/09/01 03:11:45;;;;;;;17.90;3.75;;;;;;;;;;5001487;28;20091;-66
2022/09/01 03:14:12;;;;;;;17.08;3.42;;;;;;;;;;5005375;28;20060;-66
2022/09/01 03:16:38;;;;;;;21.10;3.88;;;;;;;;;;5006418;28;20705;-66
2022/09/01 03:19:08;;;;;;;18.55;3.53;;;;;;;;;;5004644;28;20029;-66
2022/09/01 03:21:36;;;;;;;20.33;3.95;;;;;;;;;;5004018;28;20021;-66
2022/09/01 03:24:02;;;;;;;24.50;3.65;;;;;;;;;;5002503;28;20028;-66
2022/09/01 03:26:29;;;;;;;16.83;3.70;;;;;;;;;;5005495;28;20068;-65
2022/09/01 03:28:55;;;;;;;16.63;3.72;;;;;;;;;;5003458;28;20075;-66
2022/09/01 03:31:21;;;;;;;20.88;3.97;;;;;;;;;;5006550;28;20037;-65
2022/09/01 03:33:47;;;;;;;18.75;3.75;;;;;;;;;;5001488;28;20056;-66
2022/09/01 03:36:18;;;;;;;18.25;3.88;;;;;;;;;;5006973;28;20068;-65
2022/09/01 03:38:48;;;;;;;16.70;3.33;;;;;;;;;;5002621;28;20064;-66
2022/09/01 03:41:16;;;;;;;18.58;3.63;;;;;;;;;;5002820;28;20128;-65
2022/09/01 03:43:43;;;;;;;16.88;3.30;;;;;;;;;;5001345;28;20557;-66
2022/09/01 03:46:14;;;;;;;20.27;3.97;;;;;;;;;;5007138;28;20170;-66
2022/09/01 03:48:41;;;;;;;18.95;4.00;;;;;;;;;;5001537;28;20079;-67
2022/09/01 03:51:08;;;;;;;17.92;3.72;;;;;;;;;;5004472;28;20142;-65
2022/09/01 03:53:38;;;;;;;19.50;4.13;;;;;;;;;;5005374;28;20479;-65
2022/09/01 03:56:04;;;;;;;17.38;3.85;;;;;;;;;;5006980;28;20350;-65
2022/09/01 03:58:31;;;;;;;21.05;3.97;;;;;;;;;;5007445;28;20584;-66
2022/09/01 04:01:00;;;;;;;18.05;3.95;;;;;;;;;;5002652;28;20439;-65
2022/09/01 04:03:28;;;;;;;15.30;3.47;;;;;;;;;;5005236;28;20366;-66
2022/09/01 04:05:54;;;;;;;18.02;3.45;;;;;;;;;;5001586;28;20361;-66
2022/09/01 04:08:27;;;;;;;17.60;3.70;;;;;;;;;;5009201;28;20116;-65
2022/09/01 04:10:53;;;;;;;23.77;4.35;;;;;;;;;;5001975;28;20052;-66
2022/09/01 04:13:25;;;;;;;19.45;3.30;;;;;;;;;;5006731;28;20622;-67
2022/09/01 04:15:52;;;;;;;19.75;3.50;;;;;;;;;;5003233;28;20036;-66
2022/09/01 04:18:19;;;;;;;22.50;3.80;;;;;;;;;;5010713;28;20037;-67
2022/09/01 04:20:47;;;;;;;19.63;3.72;;;;;;;;;;5000334;28;20120;-68
2022/09/01 04:23:28;;;;;;;19.60;3.67;;;;;;;;;;5007851;28;20479;-65
2022/09/01 04:26:19;;;;;;;18.85;4.00;;;;;;;;;;5001961;28;20064;-66
2022/09/01 04:28:48;;;;;;;16.48;3.60;;;;;;;;;;5006769;28;20032;-68
2022/09/01 04:31:17;;;;;;;19.15;4.18;;;;;;;;;;5007895;28;20068;-66
2022/09/01 04:33:45;;;;;;;19.27;3.63;;;;;;;;;;4994447;28;20033;-65
2022/09/01 04:36:22;;;;;;;22.10;4.00;;;;;;;;;;4999259;28;20033;-66
2022/09/01 04:38:53;;;;;;;19.42;3.67;;;;;;;;;;4983024;28;20041;-65
2022/09/01 04:41:19;;;;;;;16.10;3.33;;;;;;;;;;4994006;28;20072;-65
2022/09/01 04:43:46;;;;;;;17.20;3.92;;;;;;;;;;4995585;28;20082;-65
2022/09/01 04:46:13;;;;;;;20.85;4.00;;;;;;;;;;5004420;28;20034;-66
2022/09/01 04:48:44;;;;;;;21.90;4.50;;;;;;;;;;4999728;28;20159;-65
2022/09/01 04:51:11;;;;;;;18.40;4.10;;;;;;;;;;4997402;28;20357;-66
2022/09/01 04:53:37;;;;;;;23.00;4.00;;;;;;;;;;4990285;28;20116;-65
2022/09/01 04:56:04;;;;;;;25.23;4.25;;;;;;;;;;5001034;28;20036;-65
2022/09/01 04:58:31;;;;;;;21.88;4.20;;;;;;;;;;5002098;28;20072;-65
2022/09/01 05:00:59;;;;;;;18.98;4.20;;;;;;;;;;4997712;28;20034;-65
2022/09/01 05:03:25;;;;;;;21.15;4.60;;;;;;;;;;4998481;28;20502;-65
2022/09/01 05:05:52;;;;;;;22.63;4.25;;;;;;;;;;4994826;28;20274;-66
2022/09/01 05:08:21;;;;;;;21.30;4.93;;;;;;;;;;4998512;28;20095;-65
2022/09/01 05:10:51;;;;;;;17.75;3.90;;;;;;;;;;4992350;28;20033;-66
2022/09/01 05:13:17;;;;;;;22.15;4.28;;;;;;;;;;4996939;28;20360;-65
2022/09/01 05:15:47;;;;;;;19.63;3.95;;;;;;;;;;4998129;28;20638;-67
2022/09/01 05:18:22;;;;;;;18.98;4.25;;;;;;;;;;5003612;28;20521;-66
2022/09/01 05:20:49;;;;;;;18.33;3.88;;;;;;;;;;4999655;28;20306;-68
2022/09/01 05:23:18;;;;;;;21.25;3.95;;;;;;;;;;5004100;28;20037;-65
2022/09/01 05:25:45;;;;;;;24.63;4.40;;;;;;;;;;4998885;28;20029;-66
2022/09/01 05:28:12;;;;;;;19.05;4.72;;;;;;;;;;5003573;28;20142;-66
2022/09/01 05:30:39;;;;;;;17.33;3.95;;;;;;;;;;5000298;28;20049;-65
2022/09/01 05:33:10;;;;;;;18.23;4.45;;;;;;;;;;5002266;28;20041;-66
2022/09/01 05:35:39;;;;;;;18.55;3.95;;;;;;;;;;5003001;28;20014;-67
2022/09/01 05:38:09;;;;;;;17.73;4.07;;;;;;;;;;5003298;28;20472;-67
2022/09/01 05:40:39;;;;;;;20.98;3.67;;;;;;;;;;5002279;28;20036;-67
2022/09/01 05:43:06;;;;;;;16.58;3.70;;;;;;;;;;5004059;28;20038;-67
2022/09/01 05:45:34;;;;;;;20.40;4.15;;;;;;;;;;5008374;28;20557;-66
2022/09/01 05:48:02;;;;;;;19.35;3.83;;;;;;;;;;5005452;28;20030;-66
2022/09/01 05:50:28;;;;;;;14.50;3.35;;;;;;;;;;5006612;28;21230;-65
2022/09/01 05:52:54;;;;;;;17.77;3.85;;;;;;;;;;5005303;28;20037;-65
2022/09/01 05:55:21;;;;;;;18.98;3.75;;;;;;;;;;5006602;28;20061;-65
2022/09/01 05:57:48;;;;;;;13.40;3.15;;;;;;;;;;5004420;28;20061;-66
2022/09/01 06:00:16;;;;;;;16.67;3.33;;;;;;;;;;5006128;28;20025;-66
2022/09/01 06:02:43;;;;;;;18.75;3.33;;;;;;;;;;5004573;28;20437;-65
2022/09/01 06:05:10;;;;;;;16.33;3.42;;;;;;;;;;5006212;28;20365;-65
2022/09/01 06:07:39;;;;;;;20.95;3.55;;;;;;;;;;5005017;28;20049;-65
2022/09/01 06:10:06;;;;;;;20.35;4.13;;;;;;;;;;5007267;28;20408;-66
2022/09/01 06:12:32;;;;;;;15.48;3.33;;;;;;;;;;5003724;28;20033;-65
2022/09/01 06:14:59;;;;;;;17.33;3.65;;;;;;;;;;5002699;28;20029;-66
2022/09/01 06:17:27;;;;;;;19.30;3.70;;;;;;;;;;5007008;28;20543;-67
2022/09/01 06:19:55;;;;;;;18.45;3.90;;;;;;;;;;5004621;28;20068;-66
2022/09/01 06:22:22;;;;;;;19.20;3.90;;;;;;;;;;5008580;28;20071;-66
2022/09/01 06:24:50;;;;;;;16.52;3.63;;;;;;;;;;5002052;28;20091;-67
2022/09/01 06:27:19;;;;;;;14.30;3.65;;;;;;;;;;5007418;28;20566;-66
2022/09/01 06:29:48;;;;;;;22.75;4.15;;;;;;;;;;5000382;28;20120;-66
2022/09/01 06:32:14;;;;;;;15.65;3.47;;;;;;;;;;5004343;28;20091;-66
2022/09/01 06:34:41;;;;;;;13.77;2.97;;;;;;;;;;5001752;28;20033;-66
2022/09/01 06:37:07;;;;;;;14.80;3.40;;;;;;;;;;5002182;28;20025;-66
2022/09/01 06:39:33;;;;;;;19.20;3.72;;;;;;;;;;5002326;28;20527;-66
2022/09/01 06:42:01;;;;;;;16.23;3.78;;;;;;;;;;4999946;28;20017;-66
2022/09/01 06:44:30;;;;;;;15.65;3.25;;;;;;;;;;5003652;28;20040;-66
2022/09/01 06:46:58;;;;;;;14.00;3.30;;;;;;;;;;5003867;28;20029;-66
2022/09/01 06:49:31;;;;;;;17.20;3.88;;;;;;;;;;4987308;28;20025;-66
2022/09/01 06:51:57;;;;;;;16.90;3.60;;;;;;;;;;5003606;28;20037;-66
2022/09/01 06:54:24;;;;;;;14.90;3.75;;;;;;;;;;5006222;28;20072;-66
2022/09/01 06:56:52;;;;;;;15.70;3.60;;;;;;;;;;5002754;28;20025;-65
2022/09/01 06:59:18;;;;;;;16.25;4.03;;;;;;;;;;5004142;28;20080;-66
2022/09/01 07:01:47;;;;;;;14.43;3.22;;;;;;;;;;5002746;28;20022;-66
2022/09/01 07:04:20;;;;;;;16.45;3.70;;;;;;;;;;5005427;28;20038;-67
2022/09/01 07:06:49;;;;;;;15.50;3.05;;;;;;;;;;4999547;28;20083;-65
2022/09/01 07:09:15;;;;;;;17.02;3.15;;;;;;;;;;5004617;28;20133;-67
2022/09/01 07:11:41;;;;;;;19.75;3.47;;;;;;;;;;5002224;28;20033;-66
2022/09/01 07:14:08;;;;;;;17.35;3.60;;;;;;;;;;5005831;28;20292;-65
2022/09/01 07:16:39;;;;;;;14.98;3.20;;;;;;;;;;5004172;28;20067;-67
2022/09/01 07:19:07;;;;;;;13.23;3.08;;;;;;;;;;5001992;28;20426;-65
2022/09/01 07:21:34;;;;;;;19.25;4.07;;;;;;;;;;5005256;28;20037;-65
2022/09/01 07:24:03;;;;;;;17.58;5.10;;;;;;;;;;5000797;28;20643;-66
2022/09/01 07:26:29;;;;;;;14.60;3.65;;;;;;;;;;5005947;28;20472;-65
2022/09/01 07:28:56;;;;;;;17.40;3.53;;;;;;;;;;4999982;28;20029;-66
2022/09/01 07:31:24;;;;;;;14.43;3.17;;;;;;;;;;5002505;28;20021;-66
2022/09/01 07:33:51;;;;;;;15.68;4.28;;;;;;;;;;5001433;28;20044;-66
2022/09/01 07:36:18;;;;;;;18.20;4.47;;;;;;;;;;5004314;28;20037;-66
2022/09/01 07:38:47;;;;;;;15.73;3.78;;;;;;;;;;5002574;28;20061;-67
2022/09/01 07:41:14;;;;;;;14.45;3.50;;;;;;;;;;5004480;28;20033;-66
2022/09/01 07:43:43;;;;;;;15.38;3.58;;;;;;;;;;5002200;28;20033;-66
2022/09/01 07:46:10;;;;;;;16.77;3.33;;;;;;;;;;5003313;28;20033;-66
2022/09/01 07:48:36;;;;;;;15.38;3.03;;;;;;;;;;5003689;28;20052;-66
2022/09/01 07:51:02;;;;;;;13.55;2.90;;;;;;;;;;5000199;28;20130;-66
2022/09/01 07:53:30;;;;;;;14.18;2.85;;;;;;;;;;5005240;28;20381;-66
2022/09/01 07:55:57;;;;;;;14.20;2.90;;;;;;;;;;5000058;28;20036;-66
2022/09/01 07:58:24;;;;;;;14.13;2.80;;;;;;;;;;5005449;28;20029;-66
2022/09/01 08:00:52;;;;;;;14.55;2.70;;;;;;;;;;5003171;28;20029;-66
2022/09/01 08:03:19;;;;;;;15.43;3.22;;;;;;;;;;5004509;28;20031;-67
2022/09/01 08:05:47;;;;;;;15.70;2.90;;;;;;;;;;5001270;28;20052;-67
2022/09/01 08:08:14;;;;;;;13.90;2.83;;;;;;;;;;4989841;28;20072;-67
2022/09/01 08:10:41;;;;;;;15.07;2.80;;;;;;;;;;4981060;28;20033;-66
2022/09/01 08:13:08;;;;;;;13.13;2.95;;;;;;;;;;4984802;28;20030;-66
2022/09/01 08:15:34;;;;;;;11.25;2.60;;;;;;;;;;4984728;28;20180;-66
2022/09/01 08:18:01;;;;;;;14.15;2.90;;;;;;;;;;4982201;28;20034;-66
2022/09/01 08:20:27;;;;;;;13.68;2.92;;;;;;;;;;4978564;28;20378;-66
2022/09/01 08:22:53;;;;;;;16.13;3.00;;;;;;;;;;4980031;28;20061;-66
2022/09/01 08:25:19;;;;;;;14.65;2.70;;;;;;;;;;4984625;28;20420;-66
2022/09/01 08:27:46;;;;;;;13.95;2.60;;;;;;;;;;4981307;28;21265;-66
2022/09/01 08:30:12;;;;;;;17.00;3.40;;;;;;;;;;4982052;28;20026;-66
2022/09/01 08:32:42;;;;;;;15.60;3.20;;;;;;;;;;4982655;28;20338;-66
2022/09/01 08:35:09;;;;;;;18.13;3.00;;;;;;;;;;4981482;28;20453;-65
2022/09/01 08:37:35;;;;;;;14.38;2.80;;;;;;;;;;4983770;28;20061;-66
2022/09/01 08:40:02;;;;;;;14.95;4.38;;;;;;;;;;4980744;28;20037;-66
2022/09/01 08:42:28;;;;;;;16.00;3.95;;;;;;;;;;4983731;28;20763;-66
2022/09/01 08:44:54;;;;;;;15.02;3.45;;;;;;;;;;4986583;28;20118;-67
2022/09/01 08:47:20;;;;;;;16.10;3.30;;;;;;;;;;4994409;28;20025;-67
2022/09/01 08:49:47;;;;;;;16.50;3.53;;;;;;;;;;4982747;28;20696;-68
2022/09/01 08:52:21;;;;;;;13.48;2.65;;;;;;;;;;4966247;28;20053;-66
2022/09/01 08:54:50;;;;;;;14.27;2.72;;;;;;;;;;4979912;28;20030;-67
2022/09/01 08:57:18;;;;;;;22.20;4.03;;;;;;;;;;4984209;28;20034;-67
2022/09/01 08:59:44;;;;;;;17.70;3.45;;;;;;;;;;4981040;28;20046;-66
2022/09/01 09:02:29;;;;;;;14.95;3.15;;;;;;;;;;4985568;28;20038;-66
2022/09/01 09:05:06;;;;;;;15.15;3.30;;;;;;;;;;4984760;28;20029;-66
2022/09/01 09:07:48;;;;;;;16.50;3.03;;;;;;;;;;4997708;28;20471;-66
2022/09/01 09:10:21;;;;;;;16.77;3.15;;;;;;;;;;4985045;28;20034;-66
2022/09/01 09:13:05;;;;;;;19.73;3.70;;;;;;;;;;4999810;28;20438;-66
2022/09/01 09:15:50;;;;;;;15.80;3.13;;;;;;;;;;5002728;28;20048;-66
2022/09/01 09:18:21;;;;;;;15.27;3.40;;;;;;;;;;5002797;28;20452;-66
2022/09/01 09:20:48;;;;;;;17.65;3.10;;;;;;;;;;5003753;28;20033;-66
2022/09/01 09:23:33;;;;;;;19.25;3.65;;;;;;;;;;5007263;28;20026;-66
2022/09/01 09:26:00;;;;;;;17.35;3.42;;;;;;;;;;5004185;28;20029;-66
2022/09/01 09:28:26;;;;;;;16.35;3.28;;;;;;;;;;5005189;28;20052;-66
2022/09/01 09:31:12;;;;;;;17.95;3.10;;;;;;;;;;5003398;28;20175;-66
2022/09/01 09:33:38;;;;;;;19.42;3.47;;;;;;;;;;5008736;28;20087;-66
2022/09/01 09:36:18;;;;;;;16.05;3.53;;;;;;;;;;5006531;28;20371;-66
2022/09/01 09:38:45;;;;;;;13.77;3.75;;;;;;;;;;5004783;28;20045;-66
2022/09/01 09:41:16;;;;;;;21.15;5.45;;;;;;;;;;5003914;28;20072;-66
2022/09/01 09:43:51;;;;;;;21.45;4.75;;;;;;;;;;5000617;28;20505;-66
2022/09/01 09:46:33;;;;;;;17.70;3.78;;;;;;;;;;5006873;28;20035;-66
2022/09/01 09:49:10;;;;;;;25.00;3.85;;;;;;;;;;5004255;28;20079;-65
2022/09/01 09:51:38;;;;;;;18.73;3.95;;;;;;;;;;5007472;28;20723;-66
2022/09/01 09:54:12;;;;;;;16.88;3.33;;;;;;;;;;5007312;28;20037;-67
2022/09/01 09:56:40;;;;;;;18.35;3.55;;;;;;;;;;5005404;28;20098;-66
2022/09/01 09:59:17;;;;;;;19.20;3.78;;;;;;;;;;4988362;28;20567;-66
2022/09/01 10:01:43;;;;;;;18.83;3.60;;;;;;;;;;5003791;28;20037;-66
2022/09/01 10:04:09;;;;;;;17.30;3.70;;;;;;;;;;5001610;28;20029;-66
2022/09/01 10:06:37;;;;;;;16.25;3.20;;;;;;;;;;5002240;28;20037;-66
2022/09/01 10:09:24;;;;;;;16.38;3.20;;;;;;;;;;5000354;28;20425;-65
2022/09/01 10:11:51;;;;;;;16.98;3.53;;;;;;;;;;4976190;28;20091;-66
2022/09/01 10:14:22;;;;;;;15.95;3.20;;;;;;;;;;5004469;28;20498;-66
2022/09/01 10:16:51;;;;;;;22.00;3.25;;;;;;;;;;5001038;28;20136;-66
2022/09/01 10:19:18;;;;;;;16.00;3.42;;;;;;;;;;5004374;28;20029;-66
2022/09/01 10:21:45;;;;;;;16.98;3.58;;;;;;;;;;5001074;28;20040;-66
2022/09/01 10:24:14;;;;;;;15.18;3.28;;;;;;;;;;5002786;28;20034;-66
2022/09/01 10:26:42;;;;;;;18.98;3.90;;;;;;;;;;5003408;28;20033;-66
2022/09/01 10:29:12;;;;;;;15.25;3.42;;;;;;;;;;5002786;28;20021;-65
2022/09/01 10:31:40;;;;;;;17.38;3.47;;;;;;;;;;5001468;28;20031;-65
2022/09/01 10:34:07;;;;;;;17.17;3.45;;;;;;;;;;5004577;28;20026;-66
2022/09/01 10:36:35;;;;;;;17.63;3.35;;;;;;;;;;5005059;28;20166;-66
2022/09/01 10:39:02;;;;;;;19.02;3.50;;;;;;;;;;5001096;28;20474;-66
2022/09/01 10:41:50;;;;;;;15.23;3.60;;;;;;;;;;5003528;28;20026;-66
2022/09/01 10:44:29;;;;;;;19.98;4.00;;;;;;;;;;5005210;28;20067;-66
2022/09/01 10:46:56;;;;;;;15.23;3.22;;;;;;;;;;5001600;28;20029;-66
2022/09/01 10:49:42;;;;;;;18.25;3.78;;;;;;;;;;4988046;28;20022;-66
2022/09/01 10:52:08;;;;;;;18.02;3.70;;;;;;;;;;4984614;28;20404;-66
2022/09/01 10:54:40;;;;;;;16.95;4.10;;;;;;;;;;5006568;28;20491;-66
2022/09/01 10:57:20;;;;;;;15.90;3.70;;;;;;;;;;5004786;28;20105;-67
2022/09/01 10:59:46;;;;;;;18.65;3.70;;;;;;;;;;5002047;28;20029;-67
2022/09/01 11:02:12;;;;;;;18.05;3.83;;;;;;;;;;4986354;28;20479;-66
2022/09/01 11:04:39;;;;;;;19.27;4.43;;;;;;;;;;5004453;28;20084;-67
2022/09/01 11:07:18;;;;;;;23.00;4.03;;;;;;;;;;5007931;28;20700;-68
2022/09/01 11:09:47;;;;;;;19.15;3.67;;;;;;;;;;5003201;28;20566;-67
2022/09/01 11:12:13;;;;;;;18.83;3.65;;;;;;;;;;5003869;28;20283;-66
2022/09/01 11:14:50;;;;;;;24.05;4.32;;;;;;;;;;5001008;28;20034;-67
2022/09/01 11:17:25;;;;;;;20.42;4.07;;;;;;;;;;5004443;28;20792;-66
2022/09/01 11:20:12;;;;;;;20.70;4.00;;;;;;;;;;4999584;28;20040;-67
2022/09/01 11:22:45;;;;;;;17.92;3.92;;;;;;;;;;5004070;28;20045;-67
2022/09/01 11:25:33;;;;;;;17.70;3.90;;;;;;;;;;5004771;28;20476;-67
2022/09/01 11:28:01;;;;;;;22.17;4.93;;;;;;;;;;4999268;28;20574;-69
2022/09/01 11:30:30;;;;;;;19.80;4.43;;;;;;;;;;5005710;28;20469;-67
2022/09/01 11:33:05;;;;;;;20.42;4.03;;;;;;;;;;5001169;28;20477;-67
2022/09/01 11:35:32;;;;;;;20.88;4.47;;;;;;;;;;5003893;28;20025;-67
2022/09/01 11:38:04;;;;;;;18.15;4.22;;;;;;;;;;5000283;28;20354;-66
2022/09/01 11:40:32;;;;;;;20.35;4.57;;;;;;;;;;5003210;28;20083;-66
2022/09/01 11:43:00;;;;;;;18.10;4.10;;;;;;;;;;5002766;28;20468;-67
2022/09/01 11:45:29;;;;;;;20.80;5.13;;;;;;;;;;5002697;28;20080;-66
2022/09/01 11:47:57;;;;;;;19.45;4.57;;;;;;;;;;4998089;28;20037;-66
2022/09/01 11:50:27;;;;;;;23.30;4.85;;;;;;;;;;5002835;28;20036;-67
2022/09/01 11:53:14;;;;;;;21.15;4.53;;;;;;;;;;5001013;28;20467;-66
2022/09/01 11:55:43;;;;;;;17.73;4.18;;;;;;;;;;5000082;28;20068;-65
2022/09/01 11:58:13;;;;;;;22.92;4.43;;;;;;;;;;5008284;28;20037;-66
2022/09/01 12:00:41;;;;;;;18.90;4.78;;;;;;;;;;4998941;28;20025;-66
2022/09/01 12:03:22;;;;;;;20.05;4.25;;;;;;;;;;5003466;28;20201;-66
2022/09/01 12:05:54;;;;;;;21.90;4.28;;;;;;;;;;4998621;28;20025;-66
2022/09/01 12:08:20;;;;;;;21.02;4.57;;;;;;;;;;4987734;28;20038;-66
2022/09/01 12:10:47;;;;;;;23.90;5.32;;;;;;;;;;4985370;28;20087;-65
2022/09/01 12:13:23;;;;;;;19.50;4.70;;;;;;;;;;4979441;28;20595;-67
2022/09/01 12:16:00;;;;;;;24.77;4.90;;;;;;;;;;4981735;28;20041;-67
2022/09/01 12:18:28;;;;;;;25.42;5.00;;;;;;;;;;4983175;28;20034;-66
2022/09/01 12:20:56;;;;;;;24.92;5.28;;;;;;;;;;4980116;28;20121;-66
2022/09/01 12:23:24;;;;;;;20.58;4.63;;;;;;;;;;4985626;28;20108;-67
2022/09/01 12:25:51;;;;;;;21.52;4.45;;;;;;;;;;4980320;28;20069;-66
2022/09/01 12:28:17;;;;;;;22.50;4.85;;;;;;;;;;4984547;28;20026;-66
2022/09/01 12:30:44;;;;;;;19.33;4.07;;;;;;;;;;4980953;28;20034;-67
2022/09/01 12:33:12;;;;;;;22.00;4.80;;;;;;;;;;4981529;28;20457;-66
2022/09/01 12:35:39;;;;;;;25.08;5.05;;;;;;;;;;4981455;28;20232;-66
2022/09/01 12:38:20;;;;;;;22.70;5.07;;;;;;;;;;4985343;28;20125;-66
2022/09/01 12:40:56;;;;;;;21.60;4.70;;;;;;;;;;4981102;28;20057;-67
2022/09/01 12:43:28;;;;;;;20.40;4.80;;;;;;;;;;4983629;28;20030;-66
2022/09/01 12:45:56;;;;;;;20.45;4.50;;;;;;;;;;4966090;28;20042;-66
2022/09/01 12:48:30;;;;;;;23.63;4.45;;;;;;;;;;4985942;28;20025;-66
2022/09/01 12:51:19;;;;;;;19.67;4.00;;;;;;;;;;4961341;28;20099;-66
2022/09/01 12:53:54;;;;;;;17.15;4.20;;;;;;;;;;4975661;28;20271;-67
2022/09/01 12:56:30;;;;;;;21.08;4.28;;;;;;;;;;4987594;28;20329;-66
2022/09/01 12:59:08;;;;;;;20.88;4.55;;;;;;;;;;4983897;28;20034;-67
2022/09/01 13:01:34;;;;;;;19.20;4.32;;;;;;;;;;4989209;28;20052;-67
2022/09/01 13:04:09;;;;;;;17.63;4.47;;;;;;;;;;4985928;28;20111;-66
2022/09/01 13:06:36;;;;;;;22.08;4.97;;;;;;;;;;4996083;28;20111;-67
2022/09/01 13:09:02;;;;;;;20.45;4.70;;;;;;;;;;5004196;28;20115;-66
2022/09/01 13:11:28;;;;;;;22.90;5.22;;;;;;;;;;5006152;28;20025;-66
2022/09/01 13:13:54;;;;;;;17.38;4.38;;;;;;;;;;5005424;28;20033;-66
2022/09/01 13:16:20;;;;;;;21.60;4.93;;;;;;;;;;5007900;28;20524;-67
2022/09/01 13:18:46;;;;;;;24.65;4.97;;;;;;;;;;5005046;28;20037;-66
2022/09/01 13:21:13;;;;;;;25.10;5.28;;;;;;;;;;5006802;28;20029;-67
2022/09/01 13:23:39;;;;;;;28.55;5.25;;;;;;;;;;5003305;28;20030;-68
2022/09/01 13:26:05;;;;;;;20.17;4.43;;;;;;;;;;5005318;28;20471;-67
2022/09/01 13:28:32;;;;;;;18.80;4.18;;;;;;;;;;5006318;28;20041;-68
2022/09/01 13:31:05;;;;;;;18.88;4.20;;;;;;;;;;5005936;28;22193;-68
2022/09/01 13:33:33;;;;;;;21.27;4.40;;;;;;;;;;5006422;28;20350;-68
2022/09/01 13:36:00;;;;;;;17.17;3.92;;;;;;;;;;5003010;28;20823;-67
2022/09/01 13:38:27;;;;;;;22.85;4.40;;;;;;;;;;5008645;28;20645;-67
2022/09/01 13:40:53;;;;;;;21.65;4.55;;;;;;;;;;5004726;28;20046;-68
2022/09/01 13:43:20;;;;;;;17.92;4.93;;;;;;;;;;5006777;28;20755;-68
2022/09/01 13:45:47;;;;;;;21.10;4.70;;;;;;;;;;4987253;28;20035;-68
2022/09/01 13:48:13;;;;;;;23.58;4.60;;;;;;;;;;5008288;28;21179;-68
2022/09/01 13:50:39;;;;;;;18.98;4.95;;;;;;;;;;5004664;28;20025;-68
2022/09/01 13:53:06;;;;;;;19.45;4.80;;;;;;;;;;5004616;28;20558;-68
2022/09/01 13:55:33;;;;;;;21.13;4.53;;;;;;;;;;5007608;28;20083;-69
2022/09/01 13:58:00;;;;;;;22.55;4.55;;;;;;;;;;5001605;28;20822;-69
2022/09/01 14:00:28;;;;;;;18.40;4.53;;;;;;;;;;5008064;28;20038;-67
2022/09/01 14:02:55;;;;;;;17.45;4.53;;;;;;;;;;5003908;28;20040;-68
2022/09/01 14:05:26;;;;;;;17.98;4.63;;;;;;;;;;5003451;28;20017;-68
2022/09/01 14:07:53;;;;;;;20.38;4.55;;;;;;;;;;4990777;28;20057;-68
2022/09/01 14:10:41;;;;;;;16.33;4.00;;;;;;;;;;4980601;28;20030;-68
2022/09/01 14:13:07;;;;;;;19.88;4.60;;;;;;;;;;4983583;28;20049;-68
2022/09/01 14:15:33;;;;;;;21.90;4.85;;;;;;;;;;4983540;28;20393;-69
2022/09/01 14:17:59;;;;;;;19.42;4.85;;;;;;;;;;4959686;28;20049;-68
2022/09/01 14:20:34;;;;;;;23.58;4.90;;;;;;;;;;4985442;28;20030;-69
2022/09/01 14:23:01;;;;;;;25.20;4.90;;;;;;;;;;4977421;28;20611;-66
2022/09/01 14:25:28;;;;;;;21.67;5.20;;;;;;;;;;4986284;28;20029;-68
2022/09/01 14:27:55;;;;;;;21.15;4.82;;;;;;;;;;4980056;28;20029;-68
2022/09/01 14:30:26;;;;;;;24.65;5.32;;;;;;;;;;4986068;28;20030;-67
2022/09/01 14:32:52;;;;;;;24.63;5.53;;;;;;;;;;4983302;28;20574;-68
2022/09/01 14:35:20;;;;;;;22.23;5.18;;;;;;;;;;4984849;28;20103;-67
2022/09/01 14:37:46;;;;;;;22.77;5.20;;;;;;;;;;4981223;28;20030;-68
2022/09/01 14:40:17;;;;;;;24.52;5.20;;;;;;;;;;4981176;28;20072;-66
2022/09/01 14:42:46;;;;;;;23.20;4.85;;;;;;;;;;4980934;28;20029;-67
2022/09/01 14:45:14;;;;;;;25.77;5.72;;;;;;;;;;4983718;28;20037;-67